This is the latest recevied weather packets stored in our database for station/object DO7CRZ-12. If no packets are shown the sender has not sent any weather packets the latest 10 day(s).
| Time | Temp. | Humidity | Pressure | Rain* | Wind** | Luminosity | Snow |
|---|---|---|---|---|---|---|---|
| 1778008641 | 18.89° C | 65% | 1005.8 hPa | 0 mm | - | 0 W/m² | - |
| 1778008037 | 19.44° C | 63% | 1005.7 hPa | 0 mm | - | 0 W/m² | - |
| 1778007450 | 19.44° C | 62% | 1005.7 hPa | 0 mm | - | 0 W/m² | - |
| 1778006847 | 20° C | 61% | 1005.6 hPa | 0 mm | - | 0 W/m² | - |
| 1778006244 | 20° C | 59% | 1005.7 hPa | 0 mm | - | 0 W/m² | - |
| 1778005641 | 20.56° C | 57% | 1005.7 hPa | 0 mm | - | 0 W/m² | - |
| 1778005038 | 20.56° C | 56% | 1005.8 hPa | 0 mm | - | 2 W/m² | - |
| 1778004435 | 21.11° C | 55% | 1005.9 hPa | 0 mm | - | 4 W/m² | - |
| 1778003847 | 21.11° C | 54% | 1005.9 hPa | 0 mm | - | 6 W/m² | - |
| 1778003244 | 21.67° C | 53% | 1005.9 hPa | 0 mm | - | 8 W/m² | - |
| 1778002641 | 22.22° C | 51% | 1006 hPa | 0 mm | - | 12 W/m² | - |
| 1778002039 | 22.78° C | 50% | 1006 hPa | 0 mm | - | 16 W/m² | - |
| 1778001436 | 22.78° C | 48% | 1005.9 hPa | 0 mm | - | 24 W/m² | - |
| 1778000848 | 23.33° C | 48% | 1006 hPa | 0 mm | - | 33 W/m² | - |
| 1777999642 | 23.89° C | 45% | 1005.6 hPa | 0 mm | - | 38 W/m² | - |
| 1777999039 | 25° C | 44% | 1005.9 hPa | 0 mm | - | 43 W/m² | - |
| 1777998437 | 26.11° C | 41% | 1006 hPa | 0 mm | - | 54 W/m² | - |
| 1777997849 | 26.67° C | 41% | 1006.1 hPa | 0 mm | - | 95 W/m² | - |
| 1777997246 | 27.22° C | 38% | 1006.2 hPa | 0 mm | - | 93 W/m² | - |
| 1777996643 | 28.33° C | 38% | 1006.3 hPa | 0 mm | - | 116 W/m² | - |
| 1777996040 | 28.33° C | 39% | 1006.2 hPa | 0 mm | - | 153 W/m² | - |
| 1777994850 | 26.67° C | 43% | 1006.3 hPa | 0 mm | - | 167 W/m² | - |
| 1777994247 | 25° C | 45% | 1006.3 hPa | 0 mm | - | 154 W/m² | - |
| 1777993644 | 25.56° C | 44% | 1006.3 hPa | 0 mm | - | 77 W/m² | - |
| 1777993041 | 26.11° C | 43% | 1006.2 hPa | 0 mm | - | 117 W/m² | - |
* Rain latest hour (hover to see other rain measurements)
** Current wind speed in m/s (hover to see current wind gust speed)